sensor_id;sensor_type;location;lat;lon;timestamp;P1;durP1;ratioP1;P2;durP2;ratioP2
31262;SDS011;17892;52.080;9.006;2023-04-04T00:01:38;1.33;;;0.35;;
31262;SDS011;17892;52.080;9.006;2023-04-04T00:04:04;3.25;;;0.63;;
31262;SDS011;17892;52.080;9.006;2023-04-04T00:06:30;1.63;;;0.40;;
31262;SDS011;17892;52.080;9.006;2023-04-04T00:08:56;0.88;;;0.30;;
31262;SDS011;17892;52.080;9.006;2023-04-04T00:11:22;0.93;;;0.40;;
31262;SDS011;17892;52.080;9.006;2023-04-04T00:13:47;0.85;;;0.60;;
31262;SDS011;17892;52.080;9.006;2023-04-04T00:16:13;1.70;;;0.43;;
31262;SDS011;17892;52.080;9.006;2023-04-04T00:18:39;2.20;;;0.65;;
31262;SDS011;17892;52.080;9.006;2023-04-04T00:21:04;1.65;;;0.52;;
31262;SDS011;17892;52.080;9.006;2023-04-04T00:23:30;1.17;;;0.40;;
31262;SDS011;17892;52.080;9.006;2023-04-04T00:25:56;1.88;;;0.40;;
31262;SDS011;17892;52.080;9.006;2023-04-04T00:28:21;1.52;;;0.50;;
31262;SDS011;17892;52.080;9.006;2023-04-04T00:30:47;1.65;;;0.50;;
31262;SDS011;17892;52.080;9.006;2023-04-04T00:33:13;2.42;;;0.65;;
31262;SDS011;17892;52.080;9.006;2023-04-04T00:35:39;1.20;;;0.45;;
31262;SDS011;17892;52.080;9.006;2023-04-04T00:38:05;1.42;;;0.57;;
31262;SDS011;17892;52.080;9.006;2023-04-04T00:40:31;0.90;;;0.38;;
31262;SDS011;17892;52.080;9.006;2023-04-04T00:43:08;1.83;;;0.52;;
31262;SDS011;17892;52.080;9.006;2023-04-04T00:45:33;1.25;;;0.40;;
31262;SDS011;17892;52.080;9.006;2023-04-04T00:48:00;1.52;;;0.55;;
31262;SDS011;17892;52.080;9.006;2023-04-04T00:50:27;1.38;;;0.40;;
31262;SDS011;17892;52.080;9.006;2023-04-04T00:52:53;1.23;;;0.60;;
31262;SDS011;17892;52.080;9.006;2023-04-04T00:55:20;1.33;;;0.60;;
31262;SDS011;17892;52.080;9.006;2023-04-04T00:57:45;1.75;;;0.43;;
31262;SDS011;17892;52.080;9.006;2023-04-04T01:00:12;1.05;;;0.38;;
31262;SDS011;17892;52.080;9.006;2023-04-04T01:02:39;1.55;;;0.50;;
31262;SDS011;17892;52.080;9.006;2023-04-04T01:05:05;1.70;;;0.60;;
31262;SDS011;17892;52.080;9.006;2023-04-04T01:07:31;1.30;;;0.60;;
31262;SDS011;17892;52.080;9.006;2023-04-04T01:09:56;1.70;;;0.50;;
31262;SDS011;17892;52.080;9.006;2023-04-04T01:12:23;0.95;;;0.40;;
31262;SDS011;17892;52.080;9.006;2023-04-04T01:14:49;1.92;;;0.52;;
31262;SDS011;17892;52.080;9.006;2023-04-04T01:17:15;1.27;;;0.40;;
31262;SDS011;17892;52.080;9.006;2023-04-04T01:22:38;1.00;;;0.32;;
31262;SDS011;17892;52.080;9.006;2023-04-04T01:25:05;2.10;;;0.35;;
31262;SDS011;17892;52.080;9.006;2023-04-04T01:27:32;1.67;;;0.60;;
31262;SDS011;17892;52.080;9.006;2023-04-04T01:29:58;2.42;;;0.50;;
31262;SDS011;17892;52.080;9.006;2023-04-04T01:32:26;0.85;;;0.32;;
31262;SDS011;17892;52.080;9.006;2023-04-04T01:37:48;1.00;;;0.30;;
31262;SDS011;17892;52.080;9.006;2023-04-04T01:40:40;1.67;;;0.30;;
31262;SDS011;17892;52.080;9.006;2023-04-04T01:43:12;1.48;;;0.38;;
31262;SDS011;17892;52.080;9.006;2023-04-04T01:45:38;1.85;;;0.60;;
31262;SDS011;17892;52.080;9.006;2023-04-04T01:48:04;1.02;;;0.30;;
31262;SDS011;17892;52.080;9.006;2023-04-04T01:50:30;1.15;;;0.38;;
31262;SDS011;17892;52.080;9.006;2023-04-04T01:52:56;2.97;;;0.57;;
31262;SDS011;17892;52.080;9.006;2023-04-04T01:55:21;1.13;;;0.60;;
31262;SDS011;17892;52.080;9.006;2023-04-04T01:57:47;1.27;;;0.50;;
31262;SDS011;17892;52.080;9.006;2023-04-04T02:00:13;2.97;;;0.65;;
31262;SDS011;17892;52.080;9.006;2023-04-04T02:02:39;1.40;;;0.30;;
31262;SDS011;17892;52.080;9.006;2023-04-04T02:05:05;1.13;;;0.40;;
31262;SDS011;17892;52.080;9.006;2023-04-04T02:07:31;1.65;;;0.50;;
31262;SDS011;17892;52.080;9.006;2023-04-04T02:09:57;0.50;;;0.20;;
31262;SDS011;17892;52.080;9.006;2023-04-04T02:12:23;1.52;;;0.70;;
31262;SDS011;17892;52.080;9.006;2023-04-04T02:14:48;2.30;;;0.60;;
31262;SDS011;17892;52.080;9.006;2023-04-04T02:17:14;1.85;;;0.50;;
31262;SDS011;17892;52.080;9.006;2023-04-04T02:19:40;1.42;;;0.50;;
31262;SDS011;17892;52.080;9.006;2023-04-04T02:22:06;1.02;;;0.32;;
31262;SDS011;17892;52.080;9.006;2023-04-04T02:24:32;1.45;;;0.52;;
31262;SDS011;17892;52.080;9.006;2023-04-04T02:26:57;0.88;;;0.40;;
31262;SDS011;17892;52.080;9.006;2023-04-04T02:29:23;1.95;;;0.50;;
31262;SDS011;17892;52.080;9.006;2023-04-04T02:31:49;1.90;;;0.57;;
31262;SDS011;17892;52.080;9.006;2023-04-04T02:34:14;2.08;;;0.73;;
31262;SDS011;17892;52.080;9.006;2023-04-04T02:36:40;1.73;;;0.50;;
31262;SDS011;17892;52.080;9.006;2023-04-04T02:39:06;1.13;;;0.47;;
31262;SDS011;17892;52.080;9.006;2023-04-04T02:41:31;1.73;;;0.55;;
31262;SDS011;17892;52.080;9.006;2023-04-04T02:43:57;2.03;;;0.52;;
31262;SDS011;17892;52.080;9.006;2023-04-04T02:46:23;1.85;;;0.47;;
31262;SDS011;17892;52.080;9.006;2023-04-04T02:48:48;1.88;;;0.50;;
31262;SDS011;17892;52.080;9.006;2023-04-04T02:51:15;1.60;;;0.60;;
31262;SDS011;17892;52.080;9.006;2023-04-04T02:53:41;1.25;;;0.50;;
31262;SDS011;17892;52.080;9.006;2023-04-04T02:56:07;1.27;;;0.40;;
31262;SDS011;17892;52.080;9.006;2023-04-04T02:58:32;1.25;;;0.60;;
31262;SDS011;17892;52.080;9.006;2023-04-04T03:00:58;0.93;;;0.40;;
31262;SDS011;17892;52.080;9.006;2023-04-04T03:03:24;0.90;;;0.40;;
31262;SDS011;17892;52.080;9.006;2023-04-04T03:05:51;1.52;;;0.60;;
31262;SDS011;17892;52.080;9.006;2023-04-04T03:08:17;1.50;;;0.52;;
31262;SDS011;17892;52.080;9.006;2023-04-04T03:10:43;1.13;;;0.40;;
31262;SDS011;17892;52.080;9.006;2023-04-04T03:13:10;0.85;;;0.30;;
31262;SDS011;17892;52.080;9.006;2023-04-04T03:15:36;1.55;;;0.30;;
31262;SDS011;17892;52.080;9.006;2023-04-04T03:18:02;1.17;;;0.50;;
31262;SDS011;17892;52.080;9.006;2023-04-04T03:20:28;0.82;;;0.40;;
31262;SDS011;17892;52.080;9.006;2023-04-04T03:22:53;1.23;;;0.35;;
31262;SDS011;17892;52.080;9.006;2023-04-04T03:25:20;1.70;;;0.50;;
31262;SDS011;17892;52.080;9.006;2023-04-04T03:27:45;1.38;;;0.40;;
31262;SDS011;17892;52.080;9.006;2023-04-04T03:30:11;1.38;;;0.40;;
31262;SDS011;17892;52.080;9.006;2023-04-04T03:32:37;2.92;;;0.65;;
31262;SDS011;17892;52.080;9.006;2023-04-04T03:35:04;1.35;;;0.50;;
31262;SDS011;17892;52.080;9.006;2023-04-04T03:37:31;0.82;;;0.40;;
31262;SDS011;17892;52.080;9.006;2023-04-04T03:39:57;1.77;;;0.60;;
31262;SDS011;17892;52.080;9.006;2023-04-04T03:42:23;3.17;;;0.90;;
31262;SDS011;17892;52.080;9.006;2023-04-04T03:44:48;1.98;;;0.70;;
31262;SDS011;17892;52.080;9.006;2023-04-04T03:47:14;2.00;;;0.60;;
31262;SDS011;17892;52.080;9.006;2023-04-04T03:49:40;0.93;;;0.35;;
31262;SDS011;17892;52.080;9.006;2023-04-04T03:52:06;0.50;;;0.30;;
31262;SDS011;17892;52.080;9.006;2023-04-04T03:54:32;1.63;;;0.45;;
31262;SDS011;17892;52.080;9.006;2023-04-04T03:56:57;1.35;;;0.40;;
31262;SDS011;17892;52.080;9.006;2023-04-04T03:59:23;1.20;;;0.38;;
31262;SDS011;17892;52.080;9.006;2023-04-04T04:01:49;0.98;;;0.43;;
31262;SDS011;17892;52.080;9.006;2023-04-04T04:04:15;1.52;;;0.50;;
31262;SDS011;17892;52.080;9.006;2023-04-04T04:06:40;1.55;;;0.52;;
31262;SDS011;17892;52.080;9.006;2023-04-04T04:09:07;0.98;;;0.40;;
31262;SDS011;17892;52.080;9.006;2023-04-04T04:11:35;1.83;;;0.50;;
31262;SDS011;17892;52.080;9.006;2023-04-04T04:14:00;1.60;;;0.40;;
31262;SDS011;17892;52.080;9.006;2023-04-04T04:16:27;1.08;;;0.30;;
31262;SDS011;17892;52.080;9.006;2023-04-04T04:18:53;1.50;;;0.60;;
31262;SDS011;17892;52.080;9.006;2023-04-04T04:21:19;1.17;;;0.40;;
31262;SDS011;17892;52.080;9.006;2023-04-04T04:23:44;2.15;;;0.38;;
31262;SDS011;17892;52.080;9.006;2023-04-04T04:26:10;0.77;;;0.38;;
31262;SDS011;17892;52.080;9.006;2023-04-04T04:28:36;0.73;;;0.30;;
31262;SDS011;17892;52.080;9.006;2023-04-04T04:31:08;1.20;;;0.30;;
31262;SDS011;17892;52.080;9.006;2023-04-04T04:33:34;1.27;;;0.30;;
31262;SDS011;17892;52.080;9.006;2023-04-04T04:36:03;1.38;;;0.50;;
31262;SDS011;17892;52.080;9.006;2023-04-04T04:38:30;0.52;;;0.30;;
31262;SDS011;17892;52.080;9.006;2023-04-04T04:40:57;1.00;;;0.30;;
31262;SDS011;17892;52.080;9.006;2023-04-04T04:43:23;0.50;;;0.20;;
31262;SDS011;17892;52.080;9.006;2023-04-04T04:45:49;1.13;;;0.50;;
31262;SDS011;17892;52.080;9.006;2023-04-04T04:48:15;1.00;;;0.40;;
31262;SDS011;17892;52.080;9.006;2023-04-04T04:50:42;1.98;;;0.57;;
31262;SDS011;17892;52.080;9.006;2023-04-04T04:53:12;1.30;;;0.50;;
31262;SDS011;17892;52.080;9.006;2023-04-04T04:55:38;3.72;;;0.75;;
31262;SDS011;17892;52.080;9.006;2023-04-04T04:58:04;2.10;;;0.57;;
31262;SDS011;17892;52.080;9.006;2023-04-04T05:00:30;2.03;;;0.45;;
31262;SDS011;17892;52.080;9.006;2023-04-04T05:02:57;0.60;;;0.30;;
31262;SDS011;17892;52.080;9.006;2023-04-04T05:05:26;0.93;;;0.35;;
31262;SDS011;17892;52.080;9.006;2023-04-04T05:07:52;0.65;;;0.30;;
31262;SDS011;17892;52.080;9.006;2023-04-04T05:10:18;1.23;;;0.28;;
31262;SDS011;17892;52.080;9.006;2023-04-04T05:12:44;0.93;;;0.30;;
31262;SDS011;17892;52.080;9.006;2023-04-04T05:15:10;1.50;;;0.40;;
31262;SDS011;17892;52.080;9.006;2023-04-04T05:17:37;1.92;;;0.60;;
31262;SDS011;17892;52.080;9.006;2023-04-04T05:20:05;1.88;;;0.68;;
31262;SDS011;17892;52.080;9.006;2023-04-04T05:22:34;1.58;;;0.40;;
31262;SDS011;17892;52.080;9.006;2023-04-04T05:25:00;0.98;;;0.50;;
31262;SDS011;17892;52.080;9.006;2023-04-04T05:27:25;3.53;;;0.82;;
31262;SDS011;17892;52.080;9.006;2023-04-04T05:29:51;2.75;;;0.60;;
31262;SDS011;17892;52.080;9.006;2023-04-04T05:32:17;1.10;;;0.45;;
31262;SDS011;17892;52.080;9.006;2023-04-04T05:34:42;2.78;;;0.50;;
31262;SDS011;17892;52.080;9.006;2023-04-04T05:37:08;1.70;;;0.45;;
31262;SDS011;17892;52.080;9.006;2023-04-04T05:39:34;2.47;;;0.60;;
31262;SDS011;17892;52.080;9.006;2023-04-04T05:42:01;1.33;;;0.40;;
31262;SDS011;17892;52.080;9.006;2023-04-04T05:44:27;2.67;;;0.95;;
31262;SDS011;17892;52.080;9.006;2023-04-04T05:46:53;2.00;;;0.93;;
31262;SDS011;17892;52.080;9.006;2023-04-04T05:49:18;1.25;;;0.60;;
31262;SDS011;17892;52.080;9.006;2023-04-04T05:51:44;1.75;;;0.70;;
31262;SDS011;17892;52.080;9.006;2023-04-04T05:54:10;2.60;;;0.50;;
31262;SDS011;17892;52.080;9.006;2023-04-04T05:56:36;1.20;;;0.38;;
31262;SDS011;17892;52.080;9.006;2023-04-04T05:59:01;1.23;;;0.47;;
31262;SDS011;17892;52.080;9.006;2023-04-04T06:01:27;1.88;;;0.68;;
31262;SDS011;17892;52.080;9.006;2023-04-04T06:03:53;1.23;;;0.40;;
31262;SDS011;17892;52.080;9.006;2023-04-04T06:06:20;1.92;;;0.47;;
31262;SDS011;17892;52.080;9.006;2023-04-04T06:08:45;1.33;;;0.40;;
31262;SDS011;17892;52.080;9.006;2023-04-04T06:11:11;2.72;;;0.60;;
31262;SDS011;17892;52.080;9.006;2023-04-04T06:13:37;1.50;;;0.40;;
31262;SDS011;17892;52.080;9.006;2023-04-04T06:16:03;1.95;;;0.50;;
31262;SDS011;17892;52.080;9.006;2023-04-04T06:18:29;2.42;;;0.55;;
31262;SDS011;17892;52.080;9.006;2023-04-04T06:20:55;1.42;;;0.50;;
31262;SDS011;17892;52.080;9.006;2023-04-04T06:23:21;1.40;;;0.43;;
31262;SDS011;17892;52.080;9.006;2023-04-04T06:25:46;2.45;;;0.70;;
31262;SDS011;17892;52.080;9.006;2023-04-04T06:28:12;1.95;;;0.50;;
31262;SDS011;17892;52.080;9.006;2023-04-04T06:30:39;2.58;;;0.85;;
31262;SDS011;17892;52.080;9.006;2023-04-04T06:33:05;0.88;;;0.30;;
31262;SDS011;17892;52.080;9.006;2023-04-04T06:35:31;1.00;;;0.40;;
31262;SDS011;17892;52.080;9.006;2023-04-04T06:37:57;1.38;;;0.45;;
31262;SDS011;17892;52.080;9.006;2023-04-04T06:40:23;2.17;;;0.75;;
31262;SDS011;17892;52.080;9.006;2023-04-04T06:42:49;1.98;;;0.50;;
31262;SDS011;17892;52.080;9.006;2023-04-04T06:45:25;1.63;;;0.50;;
31262;SDS011;17892;52.080;9.006;2023-04-04T06:47:51;2.40;;;0.52;;
31262;SDS011;17892;52.080;9.006;2023-04-04T06:50:18;1.50;;;0.80;;
31262;SDS011;17892;52.080;9.006;2023-04-04T06:52:48;2.47;;;0.77;;
31262;SDS011;17892;52.080;9.006;2023-04-04T06:55:14;2.33;;;0.60;;
31262;SDS011;17892;52.080;9.006;2023-04-04T06:57:41;2.40;;;0.80;;
31262;SDS011;17892;52.080;9.006;2023-04-04T07:00:07;2.13;;;0.80;;
31262;SDS011;17892;52.080;9.006;2023-04-04T07:02:34;1.67;;;0.70;;
31262;SDS011;17892;52.080;9.006;2023-04-04T07:05:00;2.75;;;0.60;;
31262;SDS011;17892;52.080;9.006;2023-04-04T07:07:28;3.17;;;1.05;;
31262;SDS011;17892;52.080;9.006;2023-04-04T07:09:54;2.13;;;0.70;;
31262;SDS011;17892;52.080;9.006;2023-04-04T07:12:20;2.90;;;1.15;;
31262;SDS011;17892;52.080;9.006;2023-04-04T07:14:46;3.33;;;1.10;;
31262;SDS011;17892;52.080;9.006;2023-04-04T07:17:11;3.00;;;1.15;;
31262;SDS011;17892;52.080;9.006;2023-04-04T07:19:37;3.00;;;1.08;;
31262;SDS011;17892;52.080;9.006;2023-04-04T07:22:03;2.75;;;1.10;;
31262;SDS011;17892;52.080;9.006;2023-04-04T07:24:29;2.47;;;0.80;;
31262;SDS011;17892;52.080;9.006;2023-04-04T07:26:55;2.47;;;0.70;;
31262;SDS011;17892;52.080;9.006;2023-04-04T07:29:20;2.72;;;0.98;;
31262;SDS011;17892;52.080;9.006;2023-04-04T07:31:46;1.75;;;0.60;;
31262;SDS011;17892;52.080;9.006;2023-04-04T07:34:12;2.20;;;0.90;;
31262;SDS011;17892;52.080;9.006;2023-04-04T07:36:38;2.08;;;0.60;;
31262;SDS011;17892;52.080;9.006;2023-04-04T07:39:04;3.33;;;1.05;;
31262;SDS011;17892;52.080;9.006;2023-04-04T07:41:30;1.65;;;0.60;;
31262;SDS011;17892;52.080;9.006;2023-04-04T07:43:55;1.70;;;0.70;;
31262;SDS011;17892;52.080;9.006;2023-04-04T07:46:21;2.00;;;0.60;;
31262;SDS011;17892;52.080;9.006;2023-04-04T07:48:47;2.30;;;0.50;;
31262;SDS011;17892;52.080;9.006;2023-04-04T07:51:13;1.80;;;0.40;;
31262;SDS011;17892;52.080;9.006;2023-04-04T07:53:39;2.42;;;0.77;;
31262;SDS011;17892;52.080;9.006;2023-04-04T07:56:05;1.55;;;0.60;;
31262;SDS011;17892;52.080;9.006;2023-04-04T07:58:33;1.30;;;0.38;;
31262;SDS011;17892;52.080;9.006;2023-04-04T08:00:59;1.42;;;0.50;;
31262;SDS011;17892;52.080;9.006;2023-04-04T08:03:26;2.10;;;0.60;;
31262;SDS011;17892;52.080;9.006;2023-04-04T08:05:52;1.50;;;0.52;;
31262;SDS011;17892;52.080;9.006;2023-04-04T08:08:18;1.38;;;0.50;;
31262;SDS011;17892;52.080;9.006;2023-04-04T08:10:44;1.20;;;0.40;;
31262;SDS011;17892;52.080;9.006;2023-04-04T08:13:10;2.10;;;0.70;;
31262;SDS011;17892;52.080;9.006;2023-04-04T08:15:37;2.38;;;0.75;;
31262;SDS011;17892;52.080;9.006;2023-04-04T08:18:03;2.90;;;0.60;;
31262;SDS011;17892;52.080;9.006;2023-04-04T08:20:29;2.63;;;0.70;;
31262;SDS011;17892;52.080;9.006;2023-04-04T08:22:55;3.67;;;0.88;;
31262;SDS011;17892;52.080;9.006;2023-04-04T08:25:21;2.92;;;0.93;;
31262;SDS011;17892;52.080;9.006;2023-04-04T08:27:47;2.33;;;0.60;;
31262;SDS011;17892;52.080;9.006;2023-04-04T08:30:13;2.38;;;0.47;;
31262;SDS011;17892;52.080;9.006;2023-04-04T08:32:39;2.13;;;0.60;;
31262;SDS011;17892;52.080;9.006;2023-04-04T08:35:06;2.50;;;0.65;;
31262;SDS011;17892;52.080;9.006;2023-04-04T08:37:32;2.58;;;0.77;;
31262;SDS011;17892;52.080;9.006;2023-04-04T08:40:00;2.00;;;0.77;;
31262;SDS011;17892;52.080;9.006;2023-04-04T08:42:31;2.42;;;0.85;;
31262;SDS011;17892;52.080;9.006;2023-04-04T08:45:01;2.58;;;0.75;;
31262;SDS011;17892;52.080;9.006;2023-04-04T08:47:32;2.08;;;0.82;;
31262;SDS011;17892;52.080;9.006;2023-04-04T08:50:00;2.08;;;0.73;;
31262;SDS011;17892;52.080;9.006;2023-04-04T08:52:29;2.42;;;0.77;;
31262;SDS011;17892;52.080;9.006;2023-04-04T08:54:57;2.05;;;0.68;;
31262;SDS011;17892;52.080;9.006;2023-04-04T08:57:23;3.08;;;0.98;;
31262;SDS011;17892;52.080;9.006;2023-04-04T08:59:49;4.38;;;1.10;;
31262;SDS011;17892;52.080;9.006;2023-04-04T09:02:28;3.03;;;0.80;;
31262;SDS011;17892;52.080;9.006;2023-04-04T09:07:28;2.55;;;0.60;;
31262;SDS011;17892;52.080;9.006;2023-04-04T09:09:55;1.67;;;0.60;;
31262;SDS011;17892;52.080;9.006;2023-04-04T09:12:22;3.13;;;0.90;;
31262;SDS011;17892;52.080;9.006;2023-04-04T09:14:50;2.78;;;0.80;;
31262;SDS011;17892;52.080;9.006;2023-04-04T09:17:17;1.98;;;0.65;;
31262;SDS011;17892;52.080;9.006;2023-04-04T09:19:43;3.58;;;0.70;;
31262;SDS011;17892;52.080;9.006;2023-04-04T09:22:09;2.28;;;0.68;;
31262;SDS011;17892;52.080;9.006;2023-04-04T09:24:36;2.60;;;0.80;;
31262;SDS011;17892;52.080;9.006;2023-04-04T09:27:04;2.00;;;0.68;;
31262;SDS011;17892;52.080;9.006;2023-04-04T09:29:36;3.53;;;0.75;;
31262;SDS011;17892;52.080;9.006;2023-04-04T09:32:06;3.40;;;1.02;;
31262;SDS011;17892;52.080;9.006;2023-04-04T09:34:33;2.67;;;0.88;;
31262;SDS011;17892;52.080;9.006;2023-04-04T09:36:58;3.28;;;1.05;;
31262;SDS011;17892;52.080;9.006;2023-04-04T09:39:24;2.97;;;1.05;;
31262;SDS011;17892;52.080;9.006;2023-04-04T09:41:51;3.33;;;0.70;;
31262;SDS011;17892;52.080;9.006;2023-04-04T09:44:17;2.10;;;0.70;;
31262;SDS011;17892;52.080;9.006;2023-04-04T09:46:43;1.50;;;0.65;;
31262;SDS011;17892;52.080;9.006;2023-04-04T09:49:09;2.25;;;0.75;;
31262;SDS011;17892;52.080;9.006;2023-04-04T09:51:36;3.03;;;0.80;;
31262;SDS011;17892;52.080;9.006;2023-04-04T09:54:03;1.77;;;0.63;;
31262;SDS011;17892;52.080;9.006;2023-04-04T09:56:32;2.33;;;0.57;;
31262;SDS011;17892;52.080;9.006;2023-04-04T09:58:58;3.15;;;1.00;;
31262;SDS011;17892;52.080;9.006;2023-04-04T10:01:26;1.35;;;0.60;;
31262;SDS011;17892;52.080;9.006;2023-04-04T10:03:53;2.13;;;0.80;;
31262;SDS011;17892;52.080;9.006;2023-04-04T10:06:19;3.08;;;1.30;;
31262;SDS011;17892;52.080;9.006;2023-04-04T10:08:47;4.18;;;0.90;;
31262;SDS011;17892;52.080;9.006;2023-04-04T10:11:13;2.50;;;0.90;;
31262;SDS011;17892;52.080;9.006;2023-04-04T10:13:57;2.03;;;0.88;;
31262;SDS011;17892;52.080;9.006;2023-04-04T10:16:24;2.30;;;0.70;;
31262;SDS011;17892;52.080;9.006;2023-04-04T10:18:50;2.50;;;0.90;;
31262;SDS011;17892;52.080;9.006;2023-04-04T10:21:17;1.65;;;0.70;;
31262;SDS011;17892;52.080;9.006;2023-04-04T10:23:46;2.25;;;0.68;;
31262;SDS011;17892;52.080;9.006;2023-04-04T10:26:13;2.10;;;0.90;;
31262;SDS011;17892;52.080;9.006;2023-04-04T10:28:39;1.77;;;0.80;;
31262;SDS011;17892;52.080;9.006;2023-04-04T10:34:31;2.20;;;0.80;;
31262;SDS011;17892;52.080;9.006;2023-04-04T10:36:50;2.35;;;0.85;;
31262;SDS011;17892;52.080;9.006;2023-04-04T10:39:30;3.25;;;1.08;;
31262;SDS011;17892;52.080;9.006;2023-04-04T10:42:01;4.05;;;1.02;;
31262;SDS011;17892;52.080;9.006;2023-04-04T10:44:31;2.60;;;0.90;;
31262;SDS011;17892;52.080;9.006;2023-04-04T10:47:03;1.75;;;0.70;;
31262;SDS011;17892;52.080;9.006;2023-04-04T10:49:48;2.80;;;0.95;;
31262;SDS011;17892;52.080;9.006;2023-04-04T10:52:16;2.33;;;0.80;;
31262;SDS011;17892;52.080;9.006;2023-04-04T10:57:11;3.25;;;0.90;;
31262;SDS011;17892;52.080;9.006;2023-04-04T10:59:56;2.22;;;0.60;;
31262;SDS011;17892;52.080;9.006;2023-04-04T11:08:06;2.03;;;0.80;;
31262;SDS011;17892;52.080;9.006;2023-04-04T11:10:35;2.30;;;0.90;;
31262;SDS011;17892;52.080;9.006;2023-04-04T11:13:10;2.75;;;1.10;;
31262;SDS011;17892;52.080;9.006;2023-04-04T11:16:06;2.60;;;0.77;;
31262;SDS011;17892;52.080;9.006;2023-04-04T11:21:07;2.25;;;0.85;;
31262;SDS011;17892;52.080;9.006;2023-04-04T11:26:17;2.53;;;0.93;;
31262;SDS011;17892;52.080;9.006;2023-04-04T11:28:49;2.33;;;0.88;;
31262;SDS011;17892;52.080;9.006;2023-04-04T11:42:01;2.20;;;0.98;;
31262;SDS011;17892;52.080;9.006;2023-04-04T11:44:39;2.47;;;0.90;;
31262;SDS011;17892;52.080;9.006;2023-04-04T11:47:18;2.22;;;0.90;;
31262;SDS011;17892;52.080;9.006;2023-04-04T11:49:45;3.10;;;0.98;;
31262;SDS011;17892;52.080;9.006;2023-04-04T11:52:12;1.65;;;0.80;;
31262;SDS011;17892;52.080;9.006;2023-04-04T11:54:43;2.40;;;0.93;;
31262;SDS011;17892;52.080;9.006;2023-04-04T11:57:11;3.03;;;1.00;;
31262;SDS011;17892;52.080;9.006;2023-04-04T11:59:39;5.25;;;1.10;;
31262;SDS011;17892;52.080;9.006;2023-04-04T12:02:08;2.65;;;1.30;;
31262;SDS011;17892;52.080;9.006;2023-04-04T12:04:34;3.35;;;1.20;;
31262;SDS011;17892;52.080;9.006;2023-04-04T12:07:01;2.90;;;0.90;;
31262;SDS011;17892;52.080;9.006;2023-04-04T12:09:30;2.80;;;1.15;;
31262;SDS011;17892;52.080;9.006;2023-04-04T12:11:57;2.10;;;1.00;;
31262;SDS011;17892;52.080;9.006;2023-04-04T12:14:23;3.45;;;1.20;;
31262;SDS011;17892;52.080;9.006;2023-04-04T12:16:53;2.45;;;0.80;;
31262;SDS011;17892;52.080;9.006;2023-04-04T12:19:23;2.72;;;0.90;;
31262;SDS011;17892;52.080;9.006;2023-04-04T12:21:53;3.45;;;1.10;;
31262;SDS011;17892;52.080;9.006;2023-04-04T12:24:21;2.85;;;0.90;;
31262;SDS011;17892;52.080;9.006;2023-04-04T12:26:48;2.85;;;0.90;;
31262;SDS011;17892;52.080;9.006;2023-04-04T12:29:16;3.00;;;1.10;;
31262;SDS011;17892;52.080;9.006;2023-04-04T12:31:45;2.17;;;0.75;;
31262;SDS011;17892;52.080;9.006;2023-04-04T12:34:15;3.47;;;0.93;;
31262;SDS011;17892;52.080;9.006;2023-04-04T12:36:59;2.25;;;0.93;;
31262;SDS011;17892;52.080;9.006;2023-04-04T12:39:26;2.40;;;0.88;;
31262;SDS011;17892;52.080;9.006;2023-04-04T12:41:56;2.20;;;0.90;;
31262;SDS011;17892;52.080;9.006;2023-04-04T12:44:31;2.10;;;0.90;;
31262;SDS011;17892;52.080;9.006;2023-04-04T12:47:04;2.47;;;1.00;;
31262;SDS011;17892;52.080;9.006;2023-04-04T12:49:33;3.03;;;1.00;;
31262;SDS011;17892;52.080;9.006;2023-04-04T12:52:03;2.60;;;1.10;;
31262;SDS011;17892;52.080;9.006;2023-04-04T12:54:31;2.03;;;0.90;;
31262;SDS011;17892;52.080;9.006;2023-04-04T12:57:03;2.03;;;0.90;;
31262;SDS011;17892;52.080;9.006;2023-04-04T12:59:31;2.28;;;0.70;;
31262;SDS011;17892;52.080;9.006;2023-04-04T13:02:04;2.20;;;1.00;;
31262;SDS011;17892;52.080;9.006;2023-04-04T13:04:33;2.38;;;0.90;;
31262;SDS011;17892;52.080;9.006;2023-04-04T13:06:59;2.55;;;1.15;;
31262;SDS011;17892;52.080;9.006;2023-04-04T13:09:26;2.00;;;0.90;;
31262;SDS011;17892;52.080;9.006;2023-04-04T13:12:02;3.80;;;1.10;;
31262;SDS011;17892;52.080;9.006;2023-04-04T13:17:41;2.58;;;1.00;;
31262;SDS011;17892;52.080;9.006;2023-04-04T13:20:08;2.75;;;0.80;;
31262;SDS011;17892;52.080;9.006;2023-04-04T13:22:36;2.42;;;0.90;;
31262;SDS011;17892;52.080;9.006;2023-04-04T13:25:03;2.75;;;1.05;;
31262;SDS011;17892;52.080;9.006;2023-04-04T13:27:30;2.20;;;0.88;;
31262;SDS011;17892;52.080;9.006;2023-04-04T13:29:55;3.53;;;1.20;;
31262;SDS011;17892;52.080;9.006;2023-04-04T13:32:21;2.53;;;1.10;;
31262;SDS011;17892;52.080;9.006;2023-04-04T13:34:47;2.80;;;1.10;;
31262;SDS011;17892;52.080;9.006;2023-04-04T13:37:13;2.50;;;0.80;;
31262;SDS011;17892;52.080;9.006;2023-04-04T13:39:38;1.52;;;0.70;;
31262;SDS011;17892;52.080;9.006;2023-04-04T13:42:04;3.72;;;0.90;;
31262;SDS011;17892;52.080;9.006;2023-04-04T13:44:30;3.22;;;1.00;;
31262;SDS011;17892;52.080;9.006;2023-04-04T13:46:56;3.22;;;1.10;;
31262;SDS011;17892;52.080;9.006;2023-04-04T13:49:22;3.17;;;0.90;;
31262;SDS011;17892;52.080;9.006;2023-04-04T13:51:48;3.53;;;1.20;;
31262;SDS011;17892;52.080;9.006;2023-04-04T13:54:13;3.03;;;1.17;;
31262;SDS011;17892;52.080;9.006;2023-04-04T13:56:40;3.08;;;1.00;;
31262;SDS011;17892;52.080;9.006;2023-04-04T13:59:06;2.28;;;1.00;;
31262;SDS011;17892;52.080;9.006;2023-04-04T14:01:32;3.35;;;1.33;;
31262;SDS011;17892;52.080;9.006;2023-04-04T14:03:58;2.55;;;1.20;;
31262;SDS011;17892;52.080;9.006;2023-04-04T14:06:24;2.30;;;1.02;;
31262;SDS011;17892;52.080;9.006;2023-04-04T14:08:50;2.33;;;1.10;;
31262;SDS011;17892;52.080;9.006;2023-04-04T14:11:17;1.98;;;0.90;;
31262;SDS011;17892;52.080;9.006;2023-04-04T14:13:43;2.72;;;0.98;;
31262;SDS011;17892;52.080;9.006;2023-04-04T14:16:10;3.15;;;1.08;;
31262;SDS011;17892;52.080;9.006;2023-04-04T14:18:36;3.03;;;1.30;;
31262;SDS011;17892;52.080;9.006;2023-04-04T14:21:01;5.20;;;2.28;;
31262;SDS011;17892;52.080;9.006;2023-04-04T14:23:27;3.22;;;1.13;;
31262;SDS011;17892;52.080;9.006;2023-04-04T14:28:22;3.05;;;1.40;;
31262;SDS011;17892;52.080;9.006;2023-04-04T14:30:48;2.70;;;1.30;;
31262;SDS011;17892;52.080;9.006;2023-04-04T14:33:17;2.53;;;1.10;;
31262;SDS011;17892;52.080;9.006;2023-04-04T14:35:43;2.55;;;1.20;;
31262;SDS011;17892;52.080;9.006;2023-04-04T14:38:09;4.43;;;1.38;;
31262;SDS011;17892;52.080;9.006;2023-04-04T14:40:35;2.42;;;1.15;;
31262;SDS011;17892;52.080;9.006;2023-04-04T14:43:01;3.20;;;1.35;;
31262;SDS011;17892;52.080;9.006;2023-04-04T14:45:27;3.03;;;1.10;;
31262;SDS011;17892;52.080;9.006;2023-04-04T14:47:53;3.30;;;1.73;;
31262;SDS011;17892;52.080;9.006;2023-04-04T14:50:19;3.22;;;1.50;;
31262;SDS011;17892;52.080;9.006;2023-04-04T14:52:45;2.15;;;1.02;;
31262;SDS011;17892;52.080;9.006;2023-04-04T14:55:15;2.72;;;1.00;;
31262;SDS011;17892;52.080;9.006;2023-04-04T14:57:41;3.28;;;1.60;;
31262;SDS011;17892;52.080;9.006;2023-04-04T15:00:09;4.53;;;2.10;;
31262;SDS011;17892;52.080;9.006;2023-04-04T15:02:36;3.45;;;1.52;;
31262;SDS011;17892;52.080;9.006;2023-04-04T15:05:02;3.10;;;1.38;;
31262;SDS011;17892;52.080;9.006;2023-04-04T15:07:28;3.25;;;1.33;;
31262;SDS011;17892;52.080;9.006;2023-04-04T15:09:53;4.15;;;1.90;;
31262;SDS011;17892;52.080;9.006;2023-04-04T15:12:19;2.85;;;1.38;;
31262;SDS011;17892;52.080;9.006;2023-04-04T15:14:45;3.58;;;1.33;;
31262;SDS011;17892;52.080;9.006;2023-04-04T15:17:11;3.67;;;1.80;;
31262;SDS011;17892;52.080;9.006;2023-04-04T15:19:37;6.00;;;1.88;;
31262;SDS011;17892;52.080;9.006;2023-04-04T15:22:03;3.15;;;1.40;;
31262;SDS011;17892;52.080;9.006;2023-04-04T15:24:29;3.22;;;1.55;;
31262;SDS011;17892;52.080;9.006;2023-04-04T15:26:55;3.80;;;1.60;;
31262;SDS011;17892;52.080;9.006;2023-04-04T15:29:20;3.38;;;1.50;;